createdAt,value
2023-03-20T00:07:57.212Z,10.23
2023-03-20T00:17:58.077Z,9.98
2023-03-20T00:27:58.903Z,9.93
2023-03-20T00:37:59.938Z,9.93
2023-03-20T00:48:00.457Z,9.84
2023-03-20T00:58:01.227Z,9.66
2023-03-20T01:08:02.024Z,9.55
2023-03-20T01:18:02.796Z,9.53
2023-03-20T01:28:03.632Z,9.01
2023-03-20T01:38:04.406Z,9.23
2023-03-20T01:48:05.253Z,8.95
2023-03-20T01:58:06.100Z,9.33
2023-03-20T02:08:06.762Z,9.23
2023-03-20T02:18:07.446Z,8.72
2023-03-20T02:28:08.206Z,8.88
2023-03-20T02:38:08.956Z,8.74
2023-03-20T02:48:09.987Z,8.46
2023-03-20T02:58:10.556Z,8.26
2023-03-20T03:08:11.174Z,8.21
2023-03-20T03:18:11.694Z,8.24
2023-03-20T03:28:12.384Z,7.83
2023-03-20T03:38:13.027Z,7.66
2023-03-20T03:48:13.662Z,7.92
2023-03-20T03:58:14.314Z,7.98
2023-03-20T04:08:15.013Z,8.02
2023-03-20T04:18:15.575Z,7.82
2023-03-20T04:28:16.338Z,7.65
2023-03-20T04:38:16.886Z,7.59
2023-03-20T04:48:17.457Z,7.15
2023-03-20T04:58:18.179Z,7.36
2023-03-20T05:08:18.560Z,6.91
2023-03-20T05:28:19.662Z,7.20
2023-03-20T05:38:20.254Z,7.40
2023-03-20T05:48:20.845Z,7.31
2023-03-20T06:08:21.760Z,7.12
2023-03-20T06:18:22.315Z,7.51
2023-03-20T06:28:22.836Z,7.81
2023-03-20T06:38:23.448Z,8.05
2023-03-20T06:48:23.972Z,8.23
2023-03-20T06:58:24.557Z,8.80
2023-03-20T07:08:25.202Z,9.31
2023-03-20T07:18:25.923Z,9.57
2023-03-20T07:28:26.683Z,9.77
2023-03-20T07:38:27.416Z,10.61
2023-03-20T07:48:28.237Z,11.01
2023-03-20T07:58:29.080Z,11.52
2023-03-20T08:08:30.002Z,12.16
2023-03-20T08:18:30.891Z,12.70
2023-03-20T08:28:46.562Z,13.39
2023-03-20T08:38:32.874Z,13.92
2023-03-20T08:48:33.948Z,14.49
2023-03-20T08:58:35.300Z,15.09
2023-03-20T09:08:36.523Z,15.00
2023-03-20T09:18:37.341Z,15.63
2023-03-20T09:28:38.629Z,15.81
2023-03-20T09:38:39.722Z,15.76
2023-03-20T09:48:40.919Z,15.54
2023-03-20T09:58:42.116Z,15.76
2023-03-20T10:08:43.302Z,15.94
2023-03-20T10:18:44.529Z,16.02
2023-03-20T10:28:45.762Z,16.13
2023-03-20T10:38:47.010Z,16.08
2023-03-20T10:48:48.277Z,16.11
2023-03-20T10:58:49.731Z,16.01
2023-03-20T11:08:50.951Z,16.37
2023-03-20T11:18:52.109Z,16.91
2023-03-20T11:28:53.369Z,16.65
2023-03-20T11:38:54.601Z,16.84
2023-03-20T11:48:56.011Z,16.84
2023-03-20T11:58:57.132Z,17.20
2023-03-20T12:08:58.720Z,17.07
2023-03-20T12:18:59.742Z,16.72
2023-03-20T12:29:01.029Z,16.76
2023-03-20T12:39:02.353Z,16.79
2023-03-20T12:49:03.684Z,16.85
2023-03-20T12:59:04.997Z,16.86
2023-03-20T13:09:06.383Z,16.99
2023-03-20T13:19:07.564Z,16.95
2023-03-20T13:29:08.830Z,17.03
2023-03-20T13:39:10.125Z,17.04
2023-03-20T13:49:11.349Z,16.94
2023-03-20T13:59:12.608Z,17.17
2023-03-20T14:19:15.237Z,16.98
2023-03-20T14:29:16.748Z,17.05
2023-03-20T14:39:17.989Z,17.26
2023-03-20T14:49:19.272Z,17.39
2023-03-20T14:59:20.471Z,17.56
2023-03-20T15:09:21.754Z,17.26
2023-03-20T15:19:23.352Z,17.27
2023-03-20T15:29:24.570Z,17.42
2023-03-20T15:39:25.749Z,17.26
2023-03-20T15:49:27.000Z,17.18
2023-03-20T15:59:28.296Z,17.16
2023-03-20T16:09:29.646Z,17.21
2023-03-20T16:19:30.879Z,17.07
2023-03-20T16:29:32.169Z,16.92
2023-03-20T16:39:33.461Z,16.73
2023-03-20T16:49:34.909Z,16.55
2023-03-20T17:09:37.461Z,16.14
2023-03-20T17:19:38.796Z,15.89
2023-03-20T17:29:39.805Z,15.67
2023-03-20T17:39:41.062Z,15.40
2023-03-20T17:49:42.559Z,15.19
2023-03-20T17:59:45.519Z,14.95
2023-03-20T18:09:45.115Z,14.52
2023-03-20T18:19:46.479Z,14.54
2023-03-20T18:29:47.571Z,14.31
2023-03-20T18:39:48.273Z,14.06
2023-03-20T18:49:49.573Z,14.07
2023-03-20T18:59:51.246Z,13.61
2023-03-20T19:09:51.876Z,13.50
2023-03-20T19:19:52.910Z,13.10
2023-03-20T19:29:53.851Z,12.64
2023-03-20T19:39:54.649Z,12.49
2023-03-20T19:49:55.742Z,12.20
2023-03-20T20:00:32.257Z,11.79
2023-03-20T20:09:57.534Z,11.95
2023-03-20T20:19:58.383Z,12.21
2023-03-20T20:29:59.274Z,11.66
2023-03-20T20:39:59.797Z,11.47
2023-03-20T20:50:00.946Z,11.41
2023-03-20T21:00:01.936Z,11.80
2023-03-20T21:10:02.425Z,11.95
2023-03-20T21:20:03.354Z,11.89
2023-03-20T21:30:04.184Z,11.88
2023-03-20T21:40:05.043Z,11.81
2023-03-20T22:01:09.685Z,11.05
2023-03-20T22:11:09.391Z,10.82
2023-03-20T22:20:59.824Z,10.56
2023-03-20T22:41:18.235Z,10.01
2023-03-20T22:50:10.668Z,9.84
2023-03-20T23:00:11.398Z,9.46
2023-03-20T23:10:12.048Z,9.60
2023-03-20T23:20:16.672Z,10.22
2023-03-20T23:30:13.477Z,10.50
2023-03-20T23:40:14.172Z,10.79
